Time;durP1;ratioP1;P1;durP2;ratioP2;P2;SDS_P1;SDS_P2;PMS_P1;PMS_P2;Temp;Humidity;BMP_temperature;BMP_pressure;BME280_temperature;BME280_humidity;BME280_pressure;Samples;Min_cycle;Max_cycle;Signal;HPM_P1;HPM_P2
2023/07/07 00:01:21;;;;;;;3.90;1.90;;;17.00;99.90;;;;;;5092501;28;20180;-50
2023/07/07 00:03:47;;;;;;;7.38;2.33;;;17.00;99.90;;;;;;5092590;28;20173;-50
2023/07/07 00:06:12;;;;;;;4.05;2.20;;;16.90;99.90;;;;;;5092298;28;20176;-50
2023/07/07 00:08:38;;;;;;;8.05;2.53;;;16.90;99.90;;;;;;5092188;28;20173;-50
2023/07/07 00:11:04;;;;;;;4.32;2.47;;;16.90;99.90;;;;;;5092199;28;20228;-50
2023/07/07 00:13:31;;;;;;;2.80;2.30;;;16.90;99.90;;;;;;5092612;28;20551;-50
2023/07/07 00:16:03;;;;;;;2.33;1.88;;;16.90;99.90;;;;;;5092669;28;20643;-50
2023/07/07 00:18:29;;;;;;;4.95;2.25;;;16.80;99.90;;;;;;5092642;28;20168;-50
2023/07/07 00:21:00;;;;;;;3.75;2.10;;;15.00;99.90;;;;;;5092176;28;20205;-50
2023/07/07 00:23:27;;;;;;;3.72;1.98;;;16.60;99.90;;;;;;5092586;28;20527;-50
2023/07/07 00:26:07;;;;;;;5.40;1.90;;;16.70;99.90;;;;;;5092058;28;20185;-50
2023/07/07 00:28:34;;;;;;;3.03;2.22;;;16.60;99.90;;;;;;5092044;28;20157;-50
2023/07/07 00:31:00;;;;;;;3.83;2.10;;;16.50;99.90;;;;;;5092518;28;20161;-50
2023/07/07 00:33:26;;;;;;;5.13;2.13;;;16.50;99.90;;;;;;5092421;28;20174;-50
2023/07/07 00:35:52;;;;;;;4.05;2.53;;;16.40;99.90;;;;;;5092063;28;20162;-50
2023/07/07 00:38:18;;;;;;;5.18;2.22;;;16.30;99.90;;;;;;5091908;28;20165;-50
2023/07/07 00:40:45;;;;;;;7.15;1.75;;;16.30;99.90;;;;;;5091897;28;20205;-50
2023/07/07 00:43:15;;;;;;;4.03;1.92;;;16.40;99.90;;;;;;5084076;28;20173;-50
2023/07/07 00:45:40;;;;;;;5.20;2.10;;;16.30;99.90;;;;;;5071482;28;20174;-50
2023/07/07 00:48:12;;;;;;;3.40;1.80;;;16.20;99.90;;;;;;5071633;28;20173;-50
2023/07/07 00:50:42;;;;;;;5.68;1.70;;;16.20;99.90;;;;;;5071380;28;20657;-50
2023/07/07 00:53:08;;;;;;;2.63;1.92;;;16.20;99.90;;;;;;5071825;28;20593;-50
2023/07/07 00:55:39;;;;;;;3.22;2.20;;;16.20;99.90;;;;;;5071596;28;20216;-50
2023/07/07 00:58:08;;;;;;;5.40;1.70;;;16.20;99.90;;;;;;5071626;28;20209;-50
2023/07/07 01:00:36;;;;;;;4.47;2.40;;;16.20;99.90;;;;;;5071654;28;20205;-50
2023/07/07 01:03:10;;;;;;;3.47;2.72;;;16.30;99.90;;;;;;5071405;28;20248;-50
2023/07/07 01:05:37;;;;;;;3.05;2.30;;;16.20;99.90;;;;;;5071469;28;20212;-50
2023/07/07 01:08:06;;;;;;;4.18;2.83;;;16.20;99.90;;;;;;5071568;28;20646;-50
2023/07/07 01:10:32;;;;;;;5.75;2.55;;;16.10;99.90;;;;;;5071314;28;20228;-50
2023/07/07 01:12:58;;;;;;;3.13;2.17;;;16.10;99.90;;;;;;5071807;28;20174;-50
2023/07/07 01:15:28;;;;;;;3.63;2.05;;;16.20;99.90;;;;;;5071390;28;20162;-50
2023/07/07 01:18:10;;;;;;;2.38;2.03;;;16.10;99.90;;;;;;5071282;28;20585;-50
2023/07/07 01:21:01;;;;;;;2.35;2.15;;;16.00;99.90;;;;;;5071328;28;20651;-50
2023/07/07 01:24:05;;;;;;;2.88;1.90;;;16.10;99.90;;;;;;5071871;28;20524;-51
2023/07/07 01:27:10;;;;;;;2.60;2.40;;;16.10;99.90;;;;;;5070402;28;20181;-50
2023/07/07 01:30:19;;;;;;;4.18;2.45;;;16.10;99.90;;;;;;5071599;28;20173;-50
2023/07/07 01:32:45;;;;;;;2.88;1.92;;;16.00;99.90;;;;;;5071210;28;20174;-50
2023/07/07 01:35:18;;;;;;;3.60;2.25;;;15.90;99.90;;;;;;5071222;28;20216;-50
2023/07/07 01:37:56;;;;;;;3.25;2.00;;;15.90;99.90;;;;;;5071463;28;20185;-50
2023/07/07 01:40:45;;;;;;;3.83;2.17;;;15.90;99.90;;;;;;5071021;28;20201;-50
2023/07/07 01:43:20;;;;;;;4.70;2.30;;;15.90;99.90;;;;;;5071231;28;20166;-51
2023/07/07 01:46:07;;;;;;;7.63;2.47;;;15.80;99.90;;;;;;5071493;28;20177;-51
2023/07/07 01:48:48;;;;;;;3.80;2.33;;;15.80;99.90;;;;;;5071178;28;20198;-51
2023/07/07 01:51:17;;;;;;;4.70;2.40;;;15.70;99.90;;;;;;5071182;28;20158;-50
2023/07/07 01:53:44;;;;;;;4.03;1.92;;;15.70;99.90;;;;;;5071004;28;20165;-51
2023/07/07 01:56:12;;;;;;;4.00;2.15;;;15.80;99.90;;;;;;5071013;28;20170;-50
2023/07/07 01:58:40;;;;;;;4.15;2.20;;;15.80;99.90;;;;;;5071387;28;20550;-51
2023/07/07 02:01:06;;;;;;;3.80;2.25;;;15.70;99.90;;;;;;5070919;28;20202;-51
2023/07/07 02:03:31;;;;;;;5.38;2.10;;;15.70;99.90;;;;;;5072453;28;20176;-50
2023/07/07 02:05:57;;;;;;;4.10;1.90;;;15.70;99.90;;;;;;5075019;28;20170;-51
2023/07/07 02:08:23;;;;;;;5.45;2.22;;;15.70;99.90;;;;;;5074776;28;20249;-50
2023/07/07 02:10:48;;;;;;;3.40;2.17;;;15.60;99.90;;;;;;5074323;28;20210;-51
2023/07/07 02:13:14;;;;;;;7.00;2.50;;;15.70;99.90;;;;;;5074460;28;20162;-50
2023/07/07 02:15:39;;;;;;;2.90;2.05;;;15.60;99.90;;;;;;5074361;28;20158;-50
2023/07/07 02:18:05;;;;;;;3.83;2.15;;;15.50;99.90;;;;;;5074298;28;20248;-50
2023/07/07 02:20:31;;;;;;;3.72;2.13;;;15.50;99.90;;;;;;5074457;28;20300;-50
2023/07/07 02:22:57;;;;;;;3.53;1.90;;;15.50;99.90;;;;;;5074652;28;20166;-51
2023/07/07 02:25:22;;;;;;;3.63;2.08;;;15.50;99.90;;;;;;5074406;28;20174;-51
2023/07/07 02:27:48;;;;;;;6.32;2.58;;;15.60;99.90;;;;;;5074116;28;20196;-51
2023/07/07 02:30:14;;;;;;;6.18;2.80;;;15.60;99.90;;;;;;5074373;28;20625;-51
2023/07/07 02:32:39;;;;;;;4.85;2.30;;;15.60;99.90;;;;;;5074162;28;20660;-50
2023/07/07 02:35:06;;;;;;;5.90;1.92;;;15.60;99.90;;;;;;5056454;28;20174;-50
2023/07/07 02:37:32;;;;;;;8.82;2.53;;;15.50;99.90;;;;;;5074260;28;20170;-50
2023/07/07 02:39:58;;;;;;;4.50;2.30;;;15.60;99.90;;;;;;5074229;28;20598;-50
2023/07/07 02:42:23;;;;;;;7.47;2.30;;;15.60;99.90;;;;;;5073879;28;20166;-50
2023/07/07 02:44:49;;;;;;;3.90;2.00;;;15.60;99.90;;;;;;5074156;28;20173;-50
2023/07/07 02:47:14;;;;;;;6.82;2.30;;;15.50;99.90;;;;;;5073807;28;20192;-49
2023/07/07 02:49:40;;;;;;;9.10;2.50;;;15.40;99.90;;;;;;5073785;28;20249;-50
2023/07/07 02:52:07;;;;;;;9.75;2.50;;;15.40;99.90;;;;;;5073710;28;20170;-50
2023/07/07 02:54:33;;;;;;;8.05;2.33;;;15.50;99.90;;;;;;5073690;28;20158;-50
2023/07/07 02:56:58;;;;;;;6.22;2.38;;;15.50;99.90;;;;;;5074008;28;20162;-51
2023/07/07 02:59:24;;;;;;;6.90;2.25;;;15.40;99.90;;;;;;5073861;28;20331;-51
2023/07/07 03:01:49;;;;;;;7.78;2.28;;;15.40;99.90;;;;;;5073574;28;20200;-51
2023/07/07 03:04:15;;;;;;;9.57;3.22;;;15.40;99.90;;;;;;5073416;28;20169;-51
2023/07/07 03:06:41;;;;;;;2.90;2.45;;;15.40;99.90;;;;;;5073498;28;20166;-50
2023/07/07 03:09:07;;;;;;;7.45;2.33;;;15.30;99.90;;;;;;5073469;28;20162;-50
2023/07/07 03:11:33;;;;;;;8.45;2.20;;;15.30;99.90;;;;;;5073404;28;20646;-50
2023/07/07 03:13:59;;;;;;;9.95;2.60;;;15.30;99.90;;;;;;5072779;28;20181;-50
2023/07/07 03:16:30;;;;;;;4.80;2.10;;;15.30;99.90;;;;;;5073218;28;20177;-50
2023/07/07 03:18:58;;;;;;;9.43;3.05;;;15.30;99.90;;;;;;5073437;28;20638;-51
2023/07/07 03:21:24;;;;;;;4.97;2.60;;;15.30;99.90;;;;;;5073793;28;20557;-50
2023/07/07 03:23:51;;;;;;;6.35;2.15;;;15.30;99.90;;;;;;5073149;28;20253;-51
2023/07/07 03:26:19;;;;;;;4.78;2.00;;;15.20;99.90;;;;;;5073078;28;20170;-50
2023/07/07 03:28:45;;;;;;;8.82;2.75;;;15.20;99.90;;;;;;5072980;28;20174;-50
2023/07/07 03:31:25;;;;;;;5.00;2.10;;;15.10;99.90;;;;;;5072971;28;20170;-50
2023/07/07 03:33:53;;;;;;;13.63;2.75;;;15.20;99.90;;;;;;5072920;28;20268;-50
2023/07/07 03:36:22;;;;;;;6.25;2.90;;;15.20;99.90;;;;;;5072799;28;20209;-50
2023/07/07 03:38:48;;;;;;;6.85;2.25;;;15.10;99.90;;;;;;5072983;28;20531;-50
2023/07/07 03:41:17;;;;;;;10.20;2.63;;;15.20;99.90;;;;;;5072712;28;20657;-50
2023/07/07 03:43:44;;;;;;;5.15;2.20;;;15.30;99.90;;;;;;5072676;28;20170;-51
2023/07/07 03:46:11;;;;;;;9.55;2.70;;;15.20;99.90;;;;;;5072558;28;20785;-51
2023/07/07 03:48:37;;;;;;;6.93;2.60;;;15.20;99.90;;;;;;5072530;28;20621;-50
2023/07/07 03:51:03;;;;;;;9.20;2.78;;;15.10;99.90;;;;;;5072510;28;20166;-50
2023/07/07 03:53:30;;;;;;;11.88;3.00;;;15.10;99.90;;;;;;5072429;28;20170;-50
2023/07/07 03:55:56;;;;;;;8.18;3.00;;;15.10;99.90;;;;;;5072912;28;20642;-50
2023/07/07 03:58:25;;;;;;;10.25;2.88;;;15.10;99.90;;;;;;5072633;28;20173;-51
2023/07/07 04:00:51;;;;;;;8.93;2.58;;;15.20;99.90;;;;;;5072287;28;20213;-50
2023/07/07 04:03:18;;;;;;;9.10;3.30;;;15.20;99.90;;;;;;5072291;28;20184;-50
2023/07/07 04:05:45;;;;;;;10.32;2.35;;;15.20;99.90;;;;;;5072163;28;20213;-50
2023/07/07 04:08:10;;;;;;;9.57;2.78;;;15.30;99.90;;;;;;5072331;28;20184;-50
2023/07/07 04:10:37;;;;;;;8.40;2.30;;;15.30;99.90;;;;;;5071941;28;20679;-50
2023/07/07 04:13:03;;;;;;;5.45;2.83;;;15.30;99.90;;;;;;5072041;28;20633;-50
2023/07/07 04:15:29;;;;;;;11.48;3.42;;;15.20;99.90;;;;;;5072139;28;20204;-51
2023/07/07 04:17:54;;;;;;;6.10;2.85;;;15.20;99.90;;;;;;5072484;28;20249;-50
2023/07/07 04:20:20;;;;;;;9.95;2.63;;;15.20;99.90;;;;;;5071883;28;20205;-50
2023/07/07 04:22:45;;;;;;;14.02;2.72;;;15.10;99.90;;;;;;5071715;28;20214;-50
2023/07/07 04:25:13;;;;;;;16.38;3.22;;;15.20;99.90;;;;;;5071871;28;20265;-50
2023/07/07 04:27:39;;;;;;;8.65;3.33;;;15.30;99.90;;;;;;5071893;28;20194;-51
2023/07/07 04:30:06;;;;;;;12.07;3.50;;;15.30;99.90;;;;;;5071861;28;20192;-51
2023/07/07 04:32:32;;;;;;;7.35;3.45;;;15.30;99.90;;;;;;5071775;28;20629;-51
2023/07/07 04:34:59;;;;;;;12.70;3.33;;;15.40;99.90;;;;;;5072384;28;20170;-51
2023/07/07 04:37:25;;;;;;;8.98;3.38;;;15.40;99.90;;;;;;5072393;28;20172;-51
2023/07/07 04:39:51;;;;;;;7.45;3.70;;;15.60;99.90;;;;;;5071641;28;20205;-51
2023/07/07 04:42:17;;;;;;;8.98;3.92;;;15.80;99.90;;;;;;5071583;28;20162;-51
2023/07/07 04:44:42;;;;;;;11.85;4.80;;;16.00;99.90;;;;;;5071680;28;20184;-51
2023/07/07 04:47:08;;;;;;;8.38;4.30;;;16.20;99.90;;;;;;5071493;28;20174;-51
2023/07/07 04:49:33;;;;;;;10.60;5.07;;;16.40;99.90;;;;;;5071459;28;20204;-51
2023/07/07 04:51:59;;;;;;;9.18;4.50;;;16.50;99.90;;;;;;5071834;28;20174;-51
2023/07/07 04:54:25;;;;;;;7.35;4.68;;;16.60;99.90;;;;;;5071956;28;20170;-51
2023/07/07 04:56:50;;;;;;;8.68;4.78;;;16.70;99.90;;;;;;5071510;28;20182;-51
2023/07/07 04:59:19;;;;;;;8.55;4.30;;;16.80;99.90;;;;;;5071450;28;20233;-51
2023/07/07 05:01:45;;;;;;;6.38;4.03;;;16.70;99.90;;;;;;5071690;28;20218;-51
2023/07/07 05:04:11;;;;;;;6.35;3.78;;;16.80;99.90;;;;;;5071465;28;20169;-51
2023/07/07 05:06:38;;;;;;;7.45;4.18;;;17.00;99.90;;;;;;5071428;28;20170;-51
2023/07/07 05:09:06;;;;;;;9.23;3.90;;;17.20;99.90;;;;;;5071413;28;20196;-51
2023/07/07 05:11:33;;;;;;;6.82;3.25;;;17.00;99.90;;;;;;5071261;28;20209;-51
2023/07/07 05:13:59;;;;;;;8.57;3.63;;;17.20;99.90;;;;;;5071228;28;20170;-51
2023/07/07 05:16:30;;;;;;;8.57;3.53;;;17.20;99.90;;;;;;5053745;28;20170;-51
2023/07/07 05:18:56;;;;;;;6.32;3.28;;;17.20;99.90;;;;;;5071639;28;20167;-51
2023/07/07 05:21:27;;;;;;;8.45;4.20;;;17.30;99.90;;;;;;5053368;28;20513;-51
2023/07/07 05:23:53;;;;;;;7.80;3.72;;;17.20;99.90;;;;;;5070750;28;20170;-50
2023/07/07 05:26:27;;;;;;;6.75;3.78;;;17.40;99.90;;;;;;5071112;28;20180;-51
2023/07/07 05:28:53;;;;;;;8.63;3.70;;;17.40;99.90;;;;;;5070774;28;20237;-51
2023/07/07 05:31:20;;;;;;;6.85;3.88;;;17.40;99.90;;;;;;5071411;28;20514;-51
2023/07/07 05:33:46;;;;;;;6.40;3.75;;;17.50;99.90;;;;;;5071482;28;20182;-51
2023/07/07 05:36:12;;;;;;;6.55;3.80;;;17.50;99.90;;;;;;5071194;28;20510;-51
2023/07/07 05:38:41;;;;;;;5.00;3.40;;;17.60;99.90;;;;;;5073085;28;20174;-51
2023/07/07 05:41:08;;;;;;;5.47;4.00;;;17.70;99.90;;;;;;5075221;28;20213;-53
2023/07/07 05:43:35;;;;;;;7.93;3.70;;;17.90;99.90;;;;;;5074931;28;20166;-52
2023/07/07 05:46:07;;;;;;;5.60;3.58;;;17.80;99.90;;;;;;5075078;28;20508;-51
2023/07/07 05:48:33;;;;;;;9.32;4.07;;;17.90;99.90;;;;;;5074763;28;20184;-51
2023/07/07 05:51:01;;;;;;;8.60;3.72;;;17.80;99.90;;;;;;5078749;28;20613;-51
2023/07/07 05:53:26;;;;;;;6.50;4.15;;;17.90;99.90;;;;;;5093674;28;20226;-49
2023/07/07 05:56:03;;;;;;;6.60;3.53;;;17.90;99.90;;;;;;5093501;28;20170;-54
2023/07/07 05:58:28;;;;;;;8.68;3.90;;;17.90;99.90;;;;;;5093249;28;20221;-53
2023/07/07 06:00:54;;;;;;;6.25;3.53;;;17.90;99.90;;;;;;5093320;28;20209;-51
2023/07/07 06:03:19;;;;;;;6.13;4.05;;;17.90;99.90;;;;;;5093041;28;20177;-54
2023/07/07 06:05:45;;;;;;;6.30;3.90;;;18.00;99.90;;;;;;5093036;28;20181;-51
2023/07/07 06:08:10;;;;;;;7.15;4.20;;;18.00;99.90;;;;;;5093029;28;20174;-52
2023/07/07 06:10:37;;;;;;;7.65;3.35;;;18.10;99.90;;;;;;5092928;28;20224;-50
2023/07/07 06:13:03;;;;;;;5.65;3.38;;;18.30;99.90;;;;;;5092829;28;20256;-50
2023/07/07 06:15:30;;;;;;;5.65;3.92;;;18.20;99.90;;;;;;5092797;28;20643;-51
2023/07/07 06:17:56;;;;;;;7.28;3.83;;;18.40;99.90;;;;;;5093193;28;20257;-48
2023/07/07 06:20:22;;;;;;;7.63;3.53;;;18.40;99.90;;;;;;5092776;28;20280;-50
2023/07/07 06:22:48;;;;;;;8.55;3.25;;;18.40;99.90;;;;;;5092642;28;20252;-53
2023/07/07 06:25:14;;;;;;;7.32;3.70;;;18.50;99.90;;;;;;5092730;28;20157;-52
2023/07/07 06:27:40;;;;;;;7.00;3.65;;;18.70;99.90;;;;;;5092615;28;20199;-52
2023/07/07 06:30:06;;;;;;;4.53;3.40;;;18.80;99.90;;;;;;5092597;28;20668;-52
2023/07/07 06:32:32;;;;;;;9.63;3.35;;;18.90;99.90;;;;;;5092797;28;20169;-51
2023/07/07 06:34:57;;;;;;;3.13;2.83;;;19.00;99.90;;;;;;5092885;28;20161;-51
2023/07/07 06:37:23;;;;;;;8.70;3.25;;;19.10;99.90;;;;;;5092507;28;20173;-51
2023/07/07 06:39:48;;;;;;;7.35;3.40;;;19.00;99.90;;;;;;5092357;28;20207;-51
2023/07/07 06:42:15;;;;;;;3.53;2.83;;;19.00;99.90;;;;;;5092401;28;20176;-51
2023/07/07 06:44:41;;;;;;;5.60;2.83;;;19.00;99.90;;;;;;5092467;28;20173;-51
2023/07/07 06:47:13;;;;;;;4.63;3.13;;;19.00;99.90;;;;;;5092429;28;20683;-51
2023/07/07 06:49:39;;;;;;;8.68;2.97;;;19.10;99.90;;;;;;5092048;28;20169;-51
2023/07/07 06:52:05;;;;;;;4.32;2.88;;;19.20;99.90;;;;;;5092258;28;20173;-51
2023/07/07 06:54:30;;;;;;;2.95;2.65;;;19.30;99.90;;;;;;5092007;28;20162;-51
2023/07/07 06:56:56;;;;;;;5.40;2.83;;;19.30;99.90;;;;;;5092265;28;20215;-51
2023/07/07 06:59:21;;;;;;;5.47;2.85;;;19.50;99.90;;;;;;5091833;28;20206;-50
2023/07/07 07:01:47;;;;;;;4.80;2.72;;;19.70;99.90;;;;;;5092141;28;20169;-51
2023/07/07 07:04:12;;;;;;;4.57;3.53;;;19.90;99.90;;;;;;5091892;28;20532;-51
2023/07/07 07:06:41;;;;;;;5.78;2.95;;;20.00;99.90;;;;;;5091873;28;20692;-52
2023/07/07 07:09:07;;;;;;;4.00;2.78;;;20.20;99.90;;;;;;5091991;28;20248;-51
2023/07/07 07:11:33;;;;;;;4.88;2.53;;;20.20;99.90;;;;;;5091722;28;20221;-51
2023/07/07 07:13:58;;;;;;;5.65;2.75;;;20.30;99.90;;;;;;5091858;28;20212;-50
2023/07/07 07:16:24;;;;;;;4.78;2.60;;;20.30;99.90;;;;;;5092077;28;20567;-51
2023/07/07 07:18:49;;;;;;;5.25;2.45;;;20.30;99.90;;;;;;5091787;28;20313;-51
2023/07/07 07:21:15;;;;;;;7.63;2.60;;;20.60;99.90;;;;;;5091463;28;20213;-51
2023/07/07 07:23:41;;;;;;;4.25;2.40;;;20.60;99.90;;;;;;5091883;28;20173;-52
2023/07/07 07:26:07;;;;;;;3.85;2.30;;;20.70;99.90;;;;;;5091829;28;20652;-52
2023/07/07 07:28:33;;;;;;;5.40;2.42;;;20.90;99.90;;;;;;5091694;28;20555;-52
2023/07/07 07:30:58;;;;;;;6.88;2.67;;;20.90;99.90;;;;;;5091841;28;20617;-52
2023/07/07 07:33:24;;;;;;;2.65;1.95;;;21.00;99.90;;;;;;5091694;28;20173;-51
2023/07/07 07:35:49;;;;;;;5.85;2.40;;;21.30;99.90;;;;;;5091270;28;20165;-52
2023/07/07 07:38:17;;;;;;;4.93;2.30;;;21.30;99.90;;;;;;5091639;28;20276;-52
2023/07/07 07:40:42;;;;;;;3.78;2.20;;;21.50;99.90;;;;;;5091177;28;20275;-51
2023/07/07 07:43:09;;;;;;;3.63;2.40;;;21.60;99.90;;;;;;5090600;28;20161;-51
2023/07/07 07:45:35;;;;;;;5.00;2.33;;;21.60;99.90;;;;;;5090371;28;20579;-52
2023/07/07 07:48:00;;;;;;;2.67;2.17;;;21.70;99.90;;;;;;5091458;28;20173;-51
2023/07/07 07:50:28;;;;;;;3.30;2.72;;;21.80;99.90;;;;;;5091702;28;20173;-52
2023/07/07 07:52:54;;;;;;;5.88;2.15;;;21.90;99.90;;;;;;5091492;28;20252;-51
2023/07/07 07:55:20;;;;;;;6.07;2.50;;;21.90;99.90;;;;;;5090927;28;20287;-52
2023/07/07 07:57:45;;;;;;;4.78;2.40;;;22.00;99.90;;;;;;5091484;28;20195;-52
2023/07/07 08:00:12;;;;;;;6.43;2.72;;;22.10;99.90;;;;;;5090701;28;20271;-51
2023/07/07 08:02:37;;;;;;;4.65;2.22;;;22.20;99.90;;;;;;5090540;28;20567;-51
2023/07/07 08:05:04;;;;;;;6.00;2.40;;;22.30;99.90;;;;;;5090698;28;20165;-51
2023/07/07 08:07:30;;;;;;;6.57;2.83;;;22.50;99.90;;;;;;5090638;28;20165;-51
2023/07/07 08:09:56;;;;;;;6.35;2.60;;;22.60;99.90;;;;;;5072760;28;20692;-51
2023/07/07 08:12:22;;;;;;;5.07;2.75;;;22.70;99.90;;;;;;5090478;28;20174;-51
2023/07/07 08:14:47;;;;;;;8.40;3.03;;;22.80;99.90;;;;;;5090554;28;20176;-52
2023/07/07 08:17:14;;;;;;;4.93;2.60;;;23.00;99.90;;;;;;5090372;28;20188;-52
2023/07/07 08:19:41;;;;;;;5.55;2.67;;;23.00;99.90;;;;;;5090518;28;20220;-52
2023/07/07 08:22:11;;;;;;;6.88;2.45;;;22.90;99.90;;;;;;5090440;28;20176;-51
2023/07/07 08:24:41;;;;;;;4.40;2.65;;;23.10;99.90;;;;;;5090395;28;20164;-52
2023/07/07 08:27:08;;;;;;;6.43;2.50;;;23.30;99.90;;;;;;5090673;28;20272;-51
2023/07/07 08:29:34;;;;;;;8.60;3.08;;;23.30;99.90;;;;;;5090256;28;20307;-51
2023/07/07 08:31:59;;;;;;;5.90;2.47;;;23.50;99.90;;;;;;5090034;28;20253;-51
2023/07/07 08:34:25;;;;;;;4.53;2.75;;;23.60;99.90;;;;;;5090744;28;20583;-51
2023/07/07 08:36:53;;;;;;;3.95;2.45;;;23.80;99.90;;;;;;5090427;28;20176;-52
2023/07/07 08:39:21;;;;;;;3.75;2.70;;;23.90;99.90;;;;;;5090270;28;20204;-50
2023/07/07 08:42:02;;;;;;;8.75;3.65;;;24.00;99.90;;;;;;5090080;28;20179;-52
2023/07/07 08:44:31;;;;;;;6.78;2.40;;;24.20;99.90;;;;;;5090274;28;20175;-51
2023/07/07 08:47:35;;;;;;;6.57;2.60;;;24.10;99.90;;;;;;5072463;28;20177;-51
2023/07/07 08:50:17;;;;;;;4.35;2.40;;;24.30;99.90;;;;;;5090063;28;20169;-51
2023/07/07 08:52:55;;;;;;;5.53;2.30;;;24.30;99.90;;;;;;5089931;28;20184;-52
2023/07/07 08:55:32;;;;;;;6.00;2.40;;;24.50;99.90;;;;;;5071793;28;20165;-52
2023/07/07 08:58:12;;;;;;;6.35;2.53;;;24.70;99.90;;;;;;5090045;28;20169;-51
2023/07/07 09:00:48;;;;;;;5.95;2.42;;;24.70;99.90;;;;;;5089978;28;20619;-52
2023/07/07 09:03:36;;;;;;;6.45;2.40;;;24.90;99.90;;;;;;5089827;28;20165;-51
2023/07/07 09:06:34;;;;;;;3.45;2.47;;;25.00;99.90;;;;;;5089994;28;20169;-51
2023/07/07 09:09:03;;;;;;;6.32;2.95;;;24.90;98.40;;;;;;5087021;28;20173;-51
2023/07/07 09:11:50;;;;;;;5.53;2.58;;;24.80;96.50;;;;;;5085678;28;20225;-51
2023/07/07 09:14:16;;;;;;;6.30;2.80;;;25.00;97.60;;;;;;5073782;28;20263;-51
2023/07/07 09:16:44;;;;;;;3.78;2.45;;;25.10;97.00;;;;;;5093823;28;20161;-51
2023/07/07 09:19:23;;;;;;;4.80;2.60;;;25.30;97.90;;;;;;5093748;28;20165;-51
2023/07/07 09:22:18;;;;;;;6.55;2.58;;;25.50;97.80;;;;;;5094345;28;20177;-52
2023/07/07 09:25:12;;;;;;;3.80;2.20;;;25.50;97.60;;;;;;5075676;28;20165;-51
2023/07/07 09:27:43;;;;;;;6.53;2.88;;;25.70;98.10;;;;;;5094002;28;20653;-52
2023/07/07 09:30:18;;;;;;;3.65;2.75;;;25.70;95.90;;;;;;5093618;28;20252;-51
2023/07/07 09:32:43;;;;;;;6.35;3.42;;;25.80;95.60;;;;;;5092863;28;20161;-52
2023/07/07 09:35:16;;;;;;;8.13;3.33;;;25.90;95.20;;;;;;5093643;28;20573;-52
2023/07/07 09:37:55;;;;;;;5.57;3.15;;;25.90;93.40;;;;;;5093502;28;20157;-51
2023/07/07 09:40:38;;;;;;;5.78;3.38;;;26.00;93.50;;;;;;5075095;28;20208;-52
2023/07/07 09:43:23;;;;;;;6.50;4.40;;;26.00;93.50;;;;;;5093251;28;20176;-51
2023/07/07 09:46:07;;;;;;;5.70;3.70;;;26.20;92.50;;;;;;5093484;28;20529;-52
2023/07/07 09:48:49;;;;;;;5.90;3.45;;;26.50;94.40;;;;;;5093454;28;20169;-51
2023/07/07 09:51:41;;;;;;;4.85;3.10;;;26.50;92.00;;;;;;5075319;28;20169;-52
2023/07/07 09:54:10;;;;;;;4.90;3.10;;;26.60;89.60;;;;;;5073510;28;20173;-51
2023/07/07 09:56:50;;;;;;;6.30;2.67;;;26.50;87.20;;;;;;5073005;28;20173;-52
2023/07/07 09:59:24;;;;;;;5.88;2.67;;;26.60;86.40;;;;;;5072823;28;20187;-52
2023/07/07 10:01:52;;;;;;;6.60;2.75;;;26.60;86.10;;;;;;5055578;28;20581;-52
2023/07/07 10:04:20;;;;;;;5.15;2.85;;;26.60;85.20;;;;;;5078283;28;20167;-52
2023/07/07 10:06:59;;;;;;;3.83;2.50;;;26.60;82.50;;;;;;5093247;28;20542;-51
2023/07/07 10:09:26;;;;;;;2.85;2.20;;;26.90;83.10;;;;;;5093516;28;20161;-51
2023/07/07 10:11:53;;;;;;;5.95;2.60;;;26.80;79.30;;;;;;5093002;28;20179;-52
2023/07/07 10:14:18;;;;;;;5.28;2.75;;;26.90;80.70;;;;;;5092907;28;20161;-52
2023/07/07 10:17:09;;;;;;;3.90;2.30;;;27.00;80.30;;;;;;5093036;28;20217;-52
2023/07/07 10:19:49;;;;;;;4.53;2.85;;;27.10;78.70;;;;;;5092390;28;20204;-51
2023/07/07 10:22:15;;;;;;;3.00;2.40;;;27.10;78.50;;;;;;5092913;28;20196;-51
2023/07/07 10:24:43;;;;;;;5.15;3.38;;;27.20;78.10;;;;;;5092078;28;20219;-52
2023/07/07 10:27:17;;;;;;;3.33;2.97;;;27.20;77.30;;;;;;5092519;28;20169;-52
2023/07/07 10:29:43;;;;;;;4.55;2.60;;;27.30;75.30;;;;;;5092574;28;20188;-52
2023/07/07 10:32:23;;;;;;;3.15;2.78;;;27.50;76.80;;;;;;5091873;28;20230;-51
2023/07/07 10:34:53;;;;;;;3.65;2.35;;;27.20;74.80;;;;;;5092545;28;20583;-51
2023/07/07 10:37:20;;;;;;;6.38;2.70;;;27.40;77.90;;;;;;5092749;28;20176;-51
2023/07/07 10:39:54;;;;;;;4.50;2.60;;;27.50;75.90;;;;;;5092412;28;20262;-51
2023/07/07 10:42:23;;;;;;;4.47;2.60;;;27.50;75.10;;;;;;5092376;28;20878;-51
2023/07/07 10:44:52;;;;;;;4.82;2.92;;;27.80;75.80;;;;;;5092165;28;20648;-52
2023/07/07 10:47:34;;;;;;;3.00;2.60;;;24.10;72.30;;;;;;5092479;28;20164;-51
2023/07/07 10:50:01;;;;;;;3.28;2.47;;;27.80;73.20;;;;;;5092030;28;20167;-51
2023/07/07 10:52:43;;;;;;;5.03;2.63;;;27.80;74.20;;;;;;5092620;28;20774;-51
2023/07/07 10:55:18;;;;;;;6.43;2.63;;;27.90;74.50;;;;;;5092141;28;20161;-51
2023/07/07 10:58:03;;;;;;;5.10;2.75;;;28.10;75.80;;;;;;5091880;28;20574;-51
2023/07/07 11:01:00;;;;;;;6.80;2.90;;;28.30;72.70;;;;;;5040353;28;20684;-51
2023/07/07 11:03:57;;;;;;;3.58;2.33;;;28.20;71.30;;;;;;5092298;28;20171;-51
2023/07/07 11:06:47;;;;;;;3.40;2.45;;;28.10;71.00;;;;;;5092422;28;20169;-51
2023/07/07 11:09:15;;;;;;;3.72;2.70;;;28.60;72.80;;;;;;5091546;28;20648;-51
2023/07/07 11:12:10;;;;;;;3.67;2.53;;;28.30;71.30;;;;;;5073554;28;20173;-51
2023/07/07 11:15:03;;;;;;;4.97;2.80;;;28.40;72.70;;;;;;5091024;28;20176;-51
2023/07/07 11:17:37;;;;;;;5.85;3.10;;;28.60;72.70;;;;;;5072556;28;20611;-51
2023/07/07 11:20:21;;;;;;;4.25;2.83;;;28.50;70.70;;;;;;5091640;28;20196;-51
2023/07/07 11:23:19;;;;;;;3.97;2.70;;;28.50;70.70;;;;;;5091481;28;20567;-51
2023/07/07 11:25:47;;;;;;;4.50;2.88;;;28.80;71.50;;;;;;5090923;28;20169;-52
2023/07/07 11:28:36;;;;;;;5.65;2.70;;;28.90;71.30;;;;;;5091536;28;20679;-51
2023/07/07 11:31:56;;;;;;;4.32;2.55;;;28.90;71.30;;;;;;5091358;28;20184;-51
2023/07/07 11:34:53;;;;;;;3.35;2.95;;;28.80;70.30;;;;;;4989516;28;20168;-51
2023/07/07 11:37:39;;;;;;;5.18;3.08;;;28.90;69.00;;;;;;5090518;28;20521;-51
2023/07/07 11:40:16;;;;;;;5.70;3.08;;;29.20;72.50;;;;;;5091237;28;20228;-51
2023/07/07 11:43:03;;;;;;;3.60;2.47;;;29.10;70.10;;;;;;5091242;28;20165;-51
2023/07/07 11:45:40;;;;;;;2.67;2.30;;;29.20;69.70;;;;;;5091069;28;20164;-51
2023/07/07 11:48:30;;;;;;;3.15;2.50;;;28.90;66.00;;;;;;5091188;28;20157;-51
2023/07/07 11:51:20;;;;;;;3.35;2.40;;;29.00;65.60;;;;;;5091423;28;20188;-51
2023/07/07 11:54:05;;;;;;;5.55;2.67;;;29.10;67.50;;;;;;5091008;28;20625;-51
2023/07/07 11:56:58;;;;;;;9.95;2.58;;;29.20;68.30;;;;;;5090836;28;20213;-51
2023/07/07 11:59:57;;;;;;;6.75;2.70;;;29.20;66.90;;;;;;5091242;28;20165;-51
2023/07/07 12:02:41;;;;;;;4.95;2.85;;;29.20;67.10;;;;;;5091150;28;20169;-51
2023/07/07 12:05:13;;;;;;;3.63;2.70;;;29.40;65.90;;;;;;5090878;28;20220;-51
2023/07/07 12:07:46;;;;;;;4.72;2.60;;;29.60;65.00;;;;;;5090626;28;20659;-51
2023/07/07 12:10:17;;;;;;;3.78;2.35;;;29.40;63.20;;;;;;5090586;28;20217;-51
2023/07/07 12:12:53;;;;;;;2.97;2.67;;;29.40;64.40;;;;;;5090691;28;20160;-51
2023/07/07 12:15:25;;;;;;;2.33;2.13;;;29.70;65.00;;;;;;5090433;28;20187;-48
2023/07/07 12:18:14;;;;;;;5.35;2.75;;;29.60;64.40;;;;;;5090837;28;20176;-51
2023/07/07 12:20:50;;;;;;;4.60;2.72;;;29.80;64.10;;;;;;5071763;28;20854;-51
2023/07/07 12:23:29;;;;;;;2.67;2.40;;;29.80;64.90;;;;;;5090344;28;20628;-51
2023/07/07 12:26:07;;;;;;;3.38;3.08;;;29.60;62.60;;;;;;5091020;28;20195;-51
2023/07/07 12:28:32;;;;;;;3.35;2.80;;;29.70;63.30;;;;;;5088715;28;20644;-51
2023/07/07 12:30:59;;;;;;;2.85;2.58;;;29.60;62.00;;;;;;5090180;28;20177;-50
2023/07/07 12:33:24;;;;;;;3.00;2.72;;;29.70;62.10;;;;;;5090408;28;20192;-51
2023/07/07 12:35:53;;;;;;;4.50;2.80;;;29.70;60.30;;;;;;5089789;28;20197;-51
2023/07/07 12:38:27;;;;;;;4.05;2.80;;;29.70;61.00;;;;;;5089959;28;20178;-51
2023/07/07 12:40:58;;;;;;;3.58;2.75;;;29.90;60.90;;;;;;5089861;28;20554;-51
2023/07/07 12:43:27;;;;;;;4.30;2.53;;;29.90;60.90;;;;;;5090383;28;20170;-51
2023/07/07 12:45:55;;;;;;;3.53;2.72;;;29.90;60.30;;;;;;5090280;28;20599;-51
2023/07/07 12:48:25;;;;;;;5.20;3.17;;;30.00;60.80;;;;;;5089702;28;20218;-51
2023/07/07 12:50:51;;;;;;;5.13;2.88;;;30.20;61.50;;;;;;5090078;28;20172;-51
2023/07/07 12:53:27;;;;;;;5.22;2.92;;;30.20;62.70;;;;;;5089842;28;20173;-51
2023/07/07 12:55:59;;;;;;;2.53;2.30;;;30.30;61.00;;;;;;5090359;28;20176;-51
2023/07/07 12:58:48;;;;;;;5.60;2.90;;;30.10;59.90;;;;;;5089836;28;20165;-51
2023/07/07 13:01:19;;;;;;;4.93;3.10;;;30.10;59.30;;;;;;5089691;28;20291;-51
2023/07/07 13:04:05;;;;;;;4.68;2.60;;;30.20;61.00;;;;;;5089600;28;20153;-53
2023/07/07 13:06:30;;;;;;;2.90;2.50;;;30.20;59.80;;;;;;5038231;28;20246;-52